Impacts TAF Board INFO
FOR SITUATIONAL AWARENESS. NOT TO BE USED FOR FLIGHT PLANNING PURPOSES.
IDs:

KLGA - New York/La Guardia, NY, US

Issued at 0249 UTC 18 Dec 2017
Updated at 0459 UTC 18 Dec 2017
Potential Impact None Slight Moderate High
Time<<18/17Z 18/18Z 18/19Z 18/20Z 18/21Z 18/22Z 18/23Z 19/00Z 19/01Z 19/02Z 19/03Z 19/04Z 19/05Z>>
Type PRVL PRVL PRVL PRVL PRVL PRVL PRVL PRVL PRVL PRVL PRVL PRVL PRVL
VIS >6 >6 >6 >6 >6 >6 >6 >6 >6 >6 >6 >6 >6
CIG -- -- -- -- -- -- -- -- 60 60 60 60 60
Cover SCT SCT SCT FEW FEW FEW FEW FEW BKN BKN BKN BKN BKN
FltCat VFR VFR VFR VFR VFR VFR VFR VFR VFR VFR VFR VFR VFR
WX -- -- -- -- -- -- -- -- -- -- -- -- --
WDir 280 280 280 260 260 260 260 260 240 240 240 240 240
WSpd 6 6 6 7 7 7 7 7 7 7 7 7 7
WGst -- -- -- -- -- -- -- -- -- -- -- -- --

Raw TAF
KLGA 180249Z 1803/1906 07007KT P6SM BKN020 OVC100
  FM180500 VRB04KT P6SM BKN020
  TEMPO 1805/1809 6SM -SNPLRA SCT008 BKN015
  FM180900 VRB03KT P6SM BKN015
  TEMPO 1809/1812 6SM -RA SCT008 BKN010
  FM181400 VRB04KT P6SM SCT020 BKN080
  FM181700 28006KT P6SM FEW020 SCT250
  FM182000 26007KT P6SM FEW250
  FM190100 24007KT P6SM BKN060


METAR Board
Radar Display
Forecast Discussion

FOR SITUATIONAL AWARENESS. NOT TO BE USED FOR FLIGHT PLANNING PURPOSES.